Time;durP1;ratioP1;P1;durP2;ratioP2;P2;SDS_P1;SDS_P2;PMS_P1;PMS_P2;Temp;Humidity;BMP_temperature;BMP_pressure;BME280_temperature;BME280_humidity;BME280_pressure;Samples;Min_cycle;Max_cycle;Signal;HPM_P1;HPM_P2
2023/11/22 00:02:10;;;;;;;6.63;3.47;;;;;;;-1.02;67.78;100996.81;5108877;27;20196;-84
2023/11/22 00:04:38;;;;;;;6.23;4.00;;;;;;;-0.99;67.79;101002.03;5106107;27;20256;-70
2023/11/22 00:07:09;;;;;;;5.07;3.73;;;;;;;-1.00;68.13;101001.94;5109754;27;20277;-72
2023/11/22 00:09:37;;;;;;;5.70;4.17;;;;;;;-0.94;67.41;101009.84;5116448;27;20227;-70
2023/11/22 00:12:07;;;;;;;6.17;4.33;;;;;;;-0.93;67.32;101003.13;5115755;27;20200;-70
2023/11/22 00:14:36;;;;;;;8.07;4.20;;;;;;;-0.94;67.37;100999.72;5112887;27;20243;-70
2023/11/22 00:17:06;;;;;;;5.93;4.13;;;;;;;-0.94;67.28;101011.50;5111894;28;20203;-72
2023/11/22 00:19:34;;;;;;;5.97;4.03;;;;;;;-0.95;67.31;101007.25;5115857;27;20708;-68
2023/11/22 00:22:11;;;;;;;5.50;4.07;;;;;;;-1.02;67.05;101012.00;5110898;27;20202;-72
2023/11/22 00:24:41;;;;;;;5.60;4.17;;;;;;;-1.02;67.03;101022.09;5120221;27;20199;-71
2023/11/22 00:27:10;;;;;;;5.03;3.60;;;;;;;-1.01;67.11;101022.97;5110744;28;20224;-71
2023/11/22 00:29:38;;;;;;;5.50;3.90;;;;;;;-1.01;66.35;101021.31;5112947;27;20272;-70
2023/11/22 00:32:09;;;;;;;7.37;4.10;;;;;;;-1.03;66.44;101022.91;5115060;27;20207;-71
2023/11/22 00:34:37;;;;;;;5.37;3.80;;;;;;;-1.08;66.76;101019.25;5117992;27;20203;-69
2023/11/22 00:37:06;;;;;;;7.10;3.60;;;;;;;-1.07;66.86;101033.66;5124451;27;20658;-71
2023/11/22 00:39:34;;;;;;;4.93;3.40;;;;;;;-1.03;66.39;101032.13;5116454;27;20203;-70
2023/11/22 00:42:03;;;;;;;6.07;3.90;;;;;;;-1.04;65.95;101036.31;5100861;28;20204;-70
2023/11/22 00:44:31;;;;;;;5.17;3.80;;;;;;;-1.10;66.04;101036.03;5122434;27;20280;-69
2023/11/22 00:47:00;;;;;;;6.77;4.33;;;;;;;-1.11;66.18;101038.47;5115531;27;20250;-70
2023/11/22 00:49:29;;;;;;;7.33;4.20;;;;;;;-1.12;66.39;101042.66;5108969;27;20207;-68
2023/11/22 00:51:58;;;;;;;5.73;3.50;;;;;;;-1.14;65.65;101038.28;5107383;27;20644;-69
2023/11/22 00:54:28;;;;;;;5.03;3.30;;;;;;;-1.19;65.85;101045.66;5119732;27;20681;-69
2023/11/22 00:56:56;;;;;;;5.00;3.40;;;;;;;-1.20;65.94;101050.63;5118947;27;20208;-69
2023/11/22 00:59:24;;;;;;;6.33;4.13;;;;;;;-1.27;66.21;101042.72;5109471;28;20258;-70
2023/11/22 01:01:52;;;;;;;4.83;3.67;;;;;;;-1.29;66.06;101049.38;5108293;28;20249;-70
2023/11/22 01:04:20;;;;;;;5.50;3.80;;;;;;;-1.26;66.20;101056.22;5112283;27;20234;-68
2023/11/22 01:06:49;;;;;;;5.87;3.67;;;;;;;-1.26;66.42;101057.09;5120156;27;20227;-70
2023/11/22 01:09:17;;;;;;;5.20;3.60;;;;;;;-1.23;66.44;101066.50;5106240;28;20208;-71
2023/11/22 01:11:47;;;;;;;5.27;3.47;;;;;;;-1.16;65.83;101060.13;5115123;27;20255;-69
2023/11/22 01:14:15;;;;;;;5.50;3.50;;;;;;;-1.25;64.97;101053.81;5115473;27;20200;-71
2023/11/22 01:16:43;;;;;;;6.10;3.50;;;;;;;-1.26;65.61;101069.75;5115018;28;20202;-70
2023/11/22 01:19:11;;;;;;;6.53;3.70;;;;;;;-1.28;65.54;101075.53;5121719;27;20216;-70
2023/11/22 01:21:41;;;;;;;4.07;2.73;;;;;;;-1.34;65.58;101062.56;5110840;28;20214;-69
2023/11/22 01:24:11;;;;;;;5.30;3.50;;;;;;;-1.34;65.53;101065.94;5119203;28;20204;-70
2023/11/22 01:26:39;;;;;;;5.70;3.63;;;;;;;-1.34;65.67;101067.59;5110643;28;20215;-69
2023/11/22 01:29:07;;;;;;;5.93;3.47;;;;;;;-1.30;65.69;101074.56;5112298;28;20221;-68
2023/11/22 01:31:35;;;;;;;4.63;3.10;;;;;;;-1.25;65.24;101075.69;5115180;28;20222;-70
2023/11/22 01:34:04;;;;;;;4.63;3.10;;;;;;;-1.30;64.87;101072.91;5113625;28;20293;-70
2023/11/22 01:36:35;;;;;;;3.70;3.00;;;;;;;-1.31;64.49;101070.31;5116305;28;20660;-70
2023/11/22 01:39:03;;;;;;;4.97;3.57;;;;;;;-1.33;64.19;101061.75;5119173;28;20200;-69
2023/11/22 01:41:32;;;;;;;4.80;2.80;;;;;;;-1.33;64.27;101075.25;5114041;28;20188;-70
2023/11/22 01:44:01;;;;;;;5.37;2.87;;;;;;;-1.38;64.04;101080.88;5120110;28;20260;-68
2023/11/22 01:46:29;;;;;;;4.00;2.87;;;;;;;-1.43;63.45;101085.69;5111619;28;20204;-69
2023/11/22 01:48:57;;;;;;;4.30;2.83;;;;;;;-1.47;63.47;101088.84;5112417;28;20582;-71
2023/11/22 01:51:26;;;;;;;4.57;3.17;;;;;;;-1.56;63.66;101091.75;5110233;28;20273;-71
2023/11/22 01:53:57;;;;;;;5.50;2.93;;;;;;;-1.56;64.09;101090.88;5112184;28;20239;-70
2023/11/22 01:56:27;;;;;;;5.27;2.87;;;;;;;-1.58;64.00;101092.47;5114240;28;20673;-71
2023/11/22 01:58:59;;;;;;;4.93;3.10;;;;;;;-1.55;63.69;101098.53;5113607;28;20620;-71
2023/11/22 02:01:28;;;;;;;5.63;3.10;;;;;;;-1.60;63.54;101089.84;5119537;28;20284;-70
2023/11/22 02:03:57;;;;;;;3.93;2.63;;;;;;;-1.58;62.60;101092.47;5107714;28;20244;-70
2023/11/22 02:06:25;;;;;;;4.40;2.40;;;;;;;-1.65;63.12;101095.44;5114062;28;20200;-70
2023/11/22 02:08:53;;;;;;;3.47;2.60;;;;;;;-1.67;63.01;101089.44;5106855;28;20205;-71
2023/11/22 02:11:22;;;;;;;4.37;3.00;;;;;;;-1.71;62.89;101103.53;5104898;28;20216;-70
2023/11/22 02:13:50;;;;;;;2.73;2.33;;;;;;;-1.71;63.17;101106.06;5117329;27;21128;-72
2023/11/22 02:16:20;;;;;;;3.63;2.27;;;;;;;-1.70;63.38;101105.28;5124119;27;20235;-70
2023/11/22 02:18:49;;;;;;;3.80;3.00;;;;;;;-1.74;63.21;101114.34;5120681;27;20667;-68
2023/11/22 02:21:17;;;;;;;3.93;2.30;;;;;;;-1.74;63.34;101118.53;5111357;27;20199;-71
2023/11/22 02:23:47;;;;;;;4.67;3.03;;;;;;;-1.76;62.93;101115.06;5108454;27;20720;-70
2023/11/22 02:26:18;;;;;;;3.33;2.40;;;;;;;-1.73;63.30;101117.72;5114872;27;20245;-71
2023/11/22 02:28:47;;;;;;;4.13;3.03;;;;;;;-1.70;63.47;101122.97;5118305;27;20204;-69
2023/11/22 02:31:16;;;;;;;3.60;2.80;;;;;;;-1.65;64.00;101124.09;5121585;27;20288;-71
2023/11/22 02:33:44;;;;;;;3.13;2.47;;;;;;;-1.66;63.28;101116.41;5115628;27;20204;-72
2023/11/22 02:36:13;;;;;;;3.80;2.60;;;;;;;-1.66;63.32;101119.81;5117186;27;20227;-71
2023/11/22 02:38:42;;;;;;;4.43;3.20;;;;;;;-1.72;62.89;101111.91;5121064;27;20207;-70
2023/11/22 02:41:11;;;;;;;4.00;2.57;;;;;;;-1.76;63.09;101112.53;5101401;28;20237;-75
2023/11/22 02:43:39;;;;;;;5.13;3.10;;;;;;;-1.76;63.23;101118.47;5107538;27;20680;-71
2023/11/22 02:46:07;;;;;;;4.17;2.73;;;;;;;-1.76;63.33;101115.06;5114518;27;20204;-71
2023/11/22 02:48:36;;;;;;;5.00;3.00;;;;;;;-1.72;63.74;101124.56;5114649;27;20217;-70
2023/11/22 02:51:06;;;;;;;5.07;3.00;;;;;;;-1.70;63.75;101131.41;5127447;27;20575;-70
2023/11/22 02:53:34;;;;;;;4.37;3.03;;;;;;;-1.67;63.73;101134.91;5107136;27;20559;-72
2023/11/22 02:56:02;;;;;;;5.23;3.23;;;;;;;-1.71;63.42;101138.91;5112829;27;21649;-71
2023/11/22 02:58:31;;;;;;;4.50;3.10;;;;;;;-1.75;63.52;101140.41;5118053;27;20204;-69
2023/11/22 03:00:59;;;;;;;4.23;2.63;;;;;;;-1.82;63.85;101139.97;5115287;27;20212;-70
2023/11/22 03:03:28;;;;;;;4.03;2.37;;;;;;;-1.88;63.80;101144.69;5110107;27;20207;-73
2023/11/22 03:05:56;;;;;;;4.30;2.50;;;;;;;-1.93;63.78;101146.94;5113430;27;20237;-71
2023/11/22 03:08:24;;;;;;;3.53;2.50;;;;;;;-1.92;63.84;101157.91;5115074;27;20208;-72
2023/11/22 03:10:52;;;;;;;3.90;2.60;;;;;;;-1.93;63.76;101167.16;5118234;27;20200;-71
2023/11/22 03:13:20;;;;;;;5.20;2.73;;;;;;;-2.00;63.58;101163.41;5125445;27;20248;-70
2023/11/22 03:15:49;;;;;;;5.33;2.70;;;;;;;-2.07;63.59;101173.94;5119217;27;20645;-70
2023/11/22 03:18:17;;;;;;;3.87;2.90;;;;;;;-2.07;63.48;101184.03;5120534;27;20264;-71
2023/11/22 03:20:46;;;;;;;3.47;2.50;;;;;;;-2.07;63.97;101189.09;5107466;27;20200;-72
2023/11/22 03:23:16;;;;;;;3.40;2.33;;;;;;;-2.07;63.66;101191.63;5117742;27;20207;-72
2023/11/22 03:25:45;;;;;;;4.93;3.00;;;;;;;-2.07;63.32;101193.28;5123693;27;20720;-75
2023/11/22 03:28:12;;;;;;;3.00;2.50;;;;;;;-2.13;63.18;101191.28;5115525;27;20249;-73
2023/11/22 03:30:40;;;;;;;2.53;2.30;;;;;;;-2.12;63.06;101208.16;5113489;27;20258;-73
2023/11/22 03:33:10;;;;;;;3.17;2.43;;;;;;;-2.15;62.60;101205.47;5113138;27;20216;-74
2023/11/22 03:35:38;;;;;;;3.87;2.57;;;;;;;-2.19;62.84;101203.53;5120028;27;20295;-72
2023/11/22 03:38:06;;;;;;;2.93;2.27;;;;;;;-2.26;63.38;101201.44;5115219;27;20291;-72
2023/11/22 03:40:34;;;;;;;2.90;2.60;;;;;;;-2.32;62.89;101213.69;5116458;27;20200;-72
2023/11/22 03:43:02;;;;;;;3.90;2.63;;;;;;;-2.44;62.96;101222.28;5117475;27;20196;-73
2023/11/22 03:45:30;;;;;;;4.63;2.60;;;;;;;-2.49;63.50;101223.66;5123239;27;20230;-72
2023/11/22 03:47:58;;;;;;;3.30;2.50;;;;;;;-2.52;63.81;101231.06;5114345;27;20208;-72
2023/11/22 03:50:28;;;;;;;4.40;2.60;;;;;;;-2.53;63.21;101241.06;5112354;27;20750;-72
2023/11/22 03:52:56;;;;;;;6.30;2.57;;;;;;;-2.68;63.11;101224.22;5122293;27;20239;-75
2023/11/22 03:55:24;;;;;;;6.80;2.80;;;;;;;-2.69;63.40;101236.72;5104625;27;20279;-72
2023/11/22 03:57:52;;;;;;;4.57;3.00;;;;;;;-2.76;64.00;101247.22;5113151;27;20208;-72
2023/11/22 04:00:20;;;;;;;4.87;2.53;;;;;;;-2.75;64.01;101259.94;5112618;27;20219;-74
2023/11/22 04:02:48;;;;;;;5.20;2.37;;;;;;;-2.73;64.11;101267.59;5120403;27;20725;-72
2023/11/22 04:05:16;;;;;;;5.90;2.83;;;;;;;-2.72;63.98;101267.69;5105726;27;20208;-72
2023/11/22 04:07:45;;;;;;;2.97;2.60;;;;;;;-2.69;64.01;101282.13;5101790;27;20223;-74
2023/11/22 04:10:13;;;;;;;4.03;2.40;;;;;;;-2.64;63.57;101283.31;5108955;27;20579;-73
2023/11/22 04:12:41;;;;;;;3.83;2.93;;;;;;;-2.68;63.45;101286.41;5108681;27;20255;-75
2023/11/22 04:15:10;;;;;;;3.90;2.67;;;;;;;-2.75;63.78;101295.25;5112393;27;20277;-74
2023/11/22 04:17:39;;;;;;;5.40;2.83;;;;;;;-2.76;64.42;101298.56;5114658;27;20207;-74
2023/11/22 04:20:10;;;;;;;3.43;2.63;;;;;;;-2.78;63.57;101292.53;5110804;27;20203;-74
2023/11/22 04:22:40;;;;;;;3.50;2.63;;;;;;;-2.78;63.99;101299.22;5118053;27;20653;-74
2023/11/22 04:25:13;;;;;;;4.43;2.50;;;;;;;-2.76;63.59;101300.19;5114881;27;20224;-75
2023/11/22 04:27:41;;;;;;;3.57;2.70;;;;;;;-2.80;63.53;101294.09;5113156;27;20551;-72
2023/11/22 04:30:13;;;;;;;3.23;2.20;;;;;;;-2.85;63.62;101297.09;5111761;27;20587;-74
2023/11/22 04:32:41;;;;;;;5.97;2.87;;;;;;;-3.00;63.61;101284.41;5111505;27;20269;-71
2023/11/22 04:35:10;;;;;;;3.47;2.67;;;;;;;-2.96;63.98;101304.88;5115949;27;20199;-72
2023/11/22 04:37:38;;;;;;;4.17;2.50;;;;;;;-2.94;63.70;101308.38;5115579;27;20230;-71
2023/11/22 04:40:08;;;;;;;4.90;2.83;;;;;;;-2.92;63.73;101316.88;5111983;27;20204;-71
2023/11/22 04:42:38;;;;;;;4.30;3.10;;;;;;;-2.93;63.88;101315.16;5113695;27;20189;-70
2023/11/22 04:45:07;;;;;;;3.53;2.33;;;;;;;-2.92;63.03;101316.00;5120586;27;20226;-70
2023/11/22 04:47:35;;;;;;;5.17;3.13;;;;;;;-2.98;63.73;101315.66;5106042;27;20223;-70
2023/11/22 04:50:04;;;;;;;3.30;2.27;;;;;;;-3.01;63.47;101320.50;5110729;28;20246;-70
2023/11/22 04:52:33;;;;;;;3.27;2.50;;;;;;;-3.02;63.60;101329.72;5117589;27;20273;-71
2023/11/22 04:55:01;;;;;;;3.80;2.50;;;;;;;-3.05;63.72;101326.13;5116422;27;20547;-69
2023/11/22 04:57:29;;;;;;;4.03;2.67;;;;;;;-3.05;63.46;101336.22;5112869;28;20738;-71
2023/11/22 05:00:00;;;;;;;3.67;2.93;;;;;;;-3.08;63.16;101344.44;5098496;28;20195;-71
2023/11/22 05:02:28;;;;;;;3.47;2.67;;;;;;;-3.10;63.50;101347.63;5104352;28;20222;-70
2023/11/22 05:04:56;;;;;;;3.47;2.60;;;;;;;-3.20;62.95;101331.94;5109931;28;20355;-70
2023/11/22 05:07:24;;;;;;;5.77;2.73;;;;;;;-3.11;63.09;101354.31;5116683;28;20206;-71
2023/11/22 05:09:52;;;;;;;4.37;2.70;;;;;;;-3.14;63.41;101354.13;5111466;28;20195;-68
2023/11/22 05:12:20;;;;;;;9.60;3.13;;;;;;;-3.14;63.62;101354.13;5114122;27;20223;-69
2023/11/22 05:14:48;;;;;;;3.17;2.73;;;;;;;-3.14;63.53;101370.91;5121007;27;20238;-71
2023/11/22 05:17:18;;;;;;;4.70;2.83;;;;;;;-3.16;63.90;101365.75;5122460;28;20651;-70
2023/11/22 05:19:46;;;;;;;4.77;3.10;;;;;;;-3.21;63.74;101367.09;5106943;28;20627;-71
2023/11/22 05:22:14;;;;;;;5.53;2.90;;;;;;;-3.28;63.56;101377.56;5114630;28;20196;-70
2023/11/22 05:24:42;;;;;;;4.27;2.67;;;;;;;-3.37;63.82;101364.38;5112626;28;20620;-70
2023/11/22 05:27:10;;;;;;;3.20;2.43;;;;;;;-3.35;63.88;101370.34;5113126;28;20196;-69
2023/11/22 05:29:38;;;;;;;4.33;2.60;;;;;;;-3.42;64.16;101366.59;5114356;28;20204;-70
2023/11/22 05:32:18;;;;;;;4.00;2.63;;;;;;;-3.44;64.05;101373.16;5104415;28;20203;-69
2023/11/22 05:34:46;;;;;;;3.87;2.80;;;;;;;-3.48;64.25;101374.59;5118234;28;20318;-70
2023/11/22 05:37:14;;;;;;;3.93;2.80;;;;;;;-3.50;64.66;101383.72;5114883;28;20674;-70
2023/11/22 05:39:42;;;;;;;5.70;3.07;;;;;;;-3.54;64.52;101401.91;5103174;28;20214;-70
2023/11/22 05:42:11;;;;;;;4.20;2.80;;;;;;;-3.54;65.11;101401.03;5102783;28;20545;-69
2023/11/22 05:44:39;;;;;;;4.03;2.80;;;;;;;-3.55;64.75;101397.63;5106753;28;20213;-66
2023/11/22 05:47:07;;;;;;;5.17;3.50;;;;;;;-3.52;64.70;101405.41;5115332;28;20650;-67
2023/11/22 05:49:37;;;;;;;3.20;2.73;;;;;;;-3.53;65.09;101403.66;5122444;27;20202;-67
2023/11/22 05:52:05;;;;;;;3.70;2.87;;;;;;;-3.55;64.52;101409.38;5116302;27;20261;-65
2023/11/22 05:54:33;;;;;;;5.63;3.60;;;;;;;-3.53;64.41;101412.88;5117931;27;20227;-65
2023/11/22 05:57:01;;;;;;;4.00;2.83;;;;;;;-3.52;64.25;101415.47;5111790;27;20609;-68
2023/11/22 05:59:30;;;;;;;6.37;3.33;;;;;;;-3.47;64.36;101421.69;5124211;27;20218;-65
2023/11/22 06:01:58;;;;;;;5.70;2.67;;;;;;;-3.44;64.30;101431.97;5109896;27;20697;-66
2023/11/22 06:04:26;;;;;;;4.90;2.77;;;;;;;-3.44;64.26;101428.59;5125721;27;20196;-66
2023/11/22 06:06:55;;;;;;;6.93;3.30;;;;;;;-3.51;64.08;101429.81;5116066;27;20208;-66
2023/11/22 06:09:23;;;;;;;5.73;3.07;;;;;;;-3.53;64.51;101428.88;5119445;27;20726;-67
2023/11/22 06:11:51;;;;;;;3.20;2.80;;;;;;;-3.56;64.25;101432.81;5112554;27;20204;-67
2023/11/22 06:14:20;;;;;;;4.67;2.73;;;;;;;-3.66;63.72;101426.28;5104234;27;20710;-67
2023/11/22 06:16:48;;;;;;;4.73;3.13;;;;;;;-3.71;63.89;101431.00;5113293;27;20214;-68
2023/11/22 06:19:16;;;;;;;4.83;2.80;;;;;;;-3.79;64.10;101426.19;5110407;27;20601;-66
2023/11/22 06:21:43;;;;;;;4.03;3.23;;;;;;;-3.78;64.48;101449.00;5122775;27;20199;-68
2023/11/22 06:24:15;;;;;;;5.43;3.00;;;;;;;-3.79;64.75;101456.41;5122040;27;20199;-65
2023/11/22 06:26:45;;;;;;;4.30;3.03;;;;;;;-3.76;65.50;101464.19;5121151;27;20207;-67
2023/11/22 06:29:14;;;;;;;3.57;3.10;;;;;;;-3.72;64.77;101463.63;5118907;27;20290;-68
2023/11/22 06:31:43;;;;;;;5.67;3.10;;;;;;;-3.70;64.82;101467.13;5102191;27;20216;-67
2023/11/22 06:34:12;;;;;;;5.67;3.23;;;;;;;-3.69;64.15;101473.91;5112936;27;20232;-67
2023/11/22 06:36:40;;;;;;;5.17;3.27;;;;;;;-3.74;65.14;101465.19;5112676;27;20293;-65
2023/11/22 06:39:09;;;;;;;6.90;3.27;;;;;;;-3.71;64.46;101478.00;5119238;27;20247;-67
2023/11/22 06:41:38;;;;;;;5.10;2.97;;;;;;;-3.71;64.79;101472.94;5117480;27;20255;-67
2023/11/22 06:44:06;;;;;;;7.63;4.40;;;;;;;-3.74;64.64;101483.69;5111599;27;20291;-68
2023/11/22 06:46:34;;;;;;;5.17;3.23;;;;;;;-3.69;65.32;101491.53;5115836;27;20223;-66
2023/11/22 06:49:02;;;;;;;6.07;3.93;;;;;;;-3.67;65.00;101490.03;5117724;27;20207;-68
2023/11/22 06:51:31;;;;;;;7.27;3.23;;;;;;;-3.68;64.22;101488.28;5114615;27;20205;-63
2023/11/22 06:54:00;;;;;;;4.30;2.80;;;;;;;-3.68;63.94;101490.78;5103821;27;20686;-68
2023/11/22 06:56:31;;;;;;;6.27;3.30;;;;;;;-3.72;64.59;101497.28;5115412;27;20245;-70
2023/11/22 06:59:00;;;;;;;6.67;4.10;;;;;;;-3.69;64.84;101511.69;5120427;27;20300;-72
2023/11/22 07:01:29;;;;;;;5.83;3.33;;;;;;;-3.68;64.92;101513.47;5113533;27;20216;-74
2023/11/22 07:03:57;;;;;;;6.97;3.43;;;;;;;-3.67;64.90;101510.16;5108248;27;20566;-75
2023/11/22 07:06:25;;;;;;;5.90;4.07;;;;;;;-3.64;64.39;101505.34;5127671;27;20207;-75
2023/11/22 07:08:54;;;;;;;5.50;3.60;;;;;;;-3.64;64.85;101497.78;5119428;27;20572;-74
2023/11/22 07:11:26;;;;;;;5.47;3.03;;;;;;;-3.63;64.42;101512.13;5124762;27;20204;-72
2023/11/22 07:13:54;;;;;;;6.43;3.40;;;;;;;-3.60;63.95;101522.41;5122218;27;20220;-72
2023/11/22 07:16:24;;;;;;;6.87;3.87;;;;;;;-3.65;63.79;101521.22;5119417;27;20240;-72
2023/11/22 07:18:52;;;;;;;8.23;4.43;;;;;;;-3.66;64.49;101534.56;5103890;27;20601;-72
2023/11/22 07:21:21;;;;;;;6.43;3.77;;;;;;;-3.65;63.68;101538.84;5104737;27;20732;-72
2023/11/22 07:23:50;;;;;;;6.90;4.10;;;;;;;-3.68;64.14;101543.69;5101374;27;20195;-73
2023/11/22 07:26:20;;;;;;;5.70;3.70;;;;;;;-3.63;63.77;101542.34;5107669;27;20215;-71
2023/11/22 07:28:48;;;;;;;6.13;3.90;;;;;;;-3.63;63.47;101536.44;5119682;27;20248;-73
2023/11/22 07:31:16;;;;;;;5.33;3.63;;;;;;;-3.61;63.37;101532.38;5124875;27;20677;-71
2023/11/22 07:33:48;;;;;;;6.80;4.37;;;;;;;-3.58;64.08;101537.63;5114225;27;20242;-71
2023/11/22 07:36:17;;;;;;;6.07;4.00;;;;;;;-3.51;63.95;101543.19;5113730;28;20631;-72
2023/11/22 07:38:45;;;;;;;6.97;4.30;;;;;;;-3.46;63.89;101554.47;5114466;27;20271;-71
2023/11/22 07:41:13;;;;;;;5.53;3.87;;;;;;;-3.33;63.03;101552.78;5106601;28;20261;-72
2023/11/22 07:43:41;;;;;;;7.93;4.87;;;;;;;-3.27;63.38;101548.19;5109384;27;20197;-71
2023/11/22 07:46:12;;;;;;;6.90;4.13;;;;;;;-3.25;62.61;101547.50;5113079;28;20212;-71
2023/11/22 07:48:42;;;;;;;7.53;4.37;;;;;;;-3.23;62.10;101547.63;5113219;28;20681;-72
2023/11/22 07:51:12;;;;;;;5.23;4.07;;;;;;;-3.25;62.50;101544.09;5110884;28;20208;-71
2023/11/22 07:53:40;;;;;;;6.47;4.50;;;;;;;-3.17;62.29;101551.44;5101439;28;20625;-71
2023/11/22 07:56:09;;;;;;;8.20;4.40;;;;;;;-3.12;61.74;101549.22;5097363;28;20299;-71
2023/11/22 07:58:37;;;;;;;8.03;4.03;;;;;;;-3.11;61.46;101543.38;5092262;28;20227;-71
2023/11/22 08:01:12;;;;;;;10.03;4.57;;;;;;;-3.08;61.85;101541.06;5100510;27;20224;-71
2023/11/22 08:03:45;;;;;;;7.37;4.20;;;;;;;-3.06;61.94;101531.94;5104449;28;20200;-74
2023/11/22 08:06:17;;;;;;;7.63;4.13;;;;;;;-3.07;60.80;101536.91;5092784;27;20204;-73
2023/11/22 08:08:45;;;;;;;5.50;4.10;;;;;;;-3.02;61.15;101543.13;5114538;27;20207;-72
2023/11/22 08:11:15;;;;;;;5.53;4.10;;;;;;;-2.98;60.97;101540.94;5107213;28;20204;-74
2023/11/22 08:13:44;;;;;;;5.20;3.90;;;;;;;-2.96;60.63;101553.63;5107647;27;20199;-73
2023/11/22 08:16:14;;;;;;;6.20;4.10;;;;;;;-2.93;60.19;101566.44;5113322;27;20247;-75
2023/11/22 08:18:42;;;;;;;6.67;4.27;;;;;;;-2.93;60.31;101557.22;5119286;27;20195;-69
2023/11/22 08:21:11;;;;;;;5.50;3.90;;;;;;;-2.94;60.40;101552.09;5116735;27;20191;-68
2023/11/22 08:23:41;;;;;;;5.53;4.07;;;;;;;-2.95;59.80;101558.75;5118666;27;20299;-63
2023/11/22 08:26:09;;;;;;;7.67;4.17;;;;;;;-2.87;60.03;101568.47;5118395;27;20231;-72
2023/11/22 08:28:37;;;;;;;7.20;3.97;;;;;;;-2.78;59.88;101567.47;5109671;28;20313;-73
2023/11/22 08:31:09;;;;;;;5.40;3.90;;;;;;;-2.74;59.61;101566.88;5099522;28;20211;-65
2023/11/22 08:33:37;;;;;;;6.97;4.50;;;;;;;-2.70;59.29;101575.53;5109987;28;20196;-66
2023/11/22 08:36:06;;;;;;;7.97;4.73;;;;;;;-2.68;59.63;101581.56;5112106;28;20246;-68
2023/11/22 08:38:34;;;;;;;6.63;4.27;;;;;;;-2.63;58.28;101582.75;5108671;27;20227;-69
2023/11/22 08:41:05;;;;;;;8.20;4.40;;;;;;;-2.56;59.60;101579.84;5114908;27;20797;-70
2023/11/22 08:43:33;;;;;;;6.47;4.53;;;;;;;-2.46;59.69;101578.81;5112087;28;20200;-72
2023/11/22 08:46:04;;;;;;;8.67;4.37;;;;;;;-2.41;58.77;101589.19;5101373;27;20195;-66
2023/11/22 08:48:41;;;;;;;7.73;4.77;;;;;;;-2.38;58.12;101595.31;5093822;28;20216;-72
2023/11/22 08:51:11;;;;;;;8.00;4.40;;;;;;;-2.38;58.96;101594.47;5111782;28;20702;-72
2023/11/22 08:53:44;;;;;;;7.13;4.70;;;;;;;-2.35;58.88;101593.00;5117171;27;20646;-71
2023/11/22 08:56:15;;;;;;;7.87;4.40;;;;;;;-2.29;57.80;101600.09;5120344;27;20292;-66
2023/11/22 08:58:44;;;;;;;8.37;4.43;;;;;;;-2.27;58.03;101598.56;5112925;28;20227;-65
2023/11/22 09:01:14;;;;;;;9.73;5.27;;;;;;;-2.24;58.78;101608.84;5103785;27;20208;-71
2023/11/22 09:03:43;;;;;;;8.60;5.20;;;;;;;-2.18;57.99;101619.31;5109803;27;20694;-70
2023/11/22 09:06:12;;;;;;;9.17;4.97;;;;;;;-2.15;58.46;101626.25;5111368;27;20195;-70
2023/11/22 09:08:41;;;;;;;9.83;6.23;;;;;;;-2.08;58.61;101618.28;5121638;27;20427;-72
2023/11/22 09:11:08;;;;;;;13.20;5.97;;;;;;;-2.08;59.03;101626.72;5111640;28;20659;-68
2023/11/22 09:13:39;;;;;;;11.63;6.43;;;;;;;-2.02;59.43;101622.09;5102240;27;20249;-72
2023/11/22 09:16:08;;;;;;;10.53;6.87;;;;;;;-1.92;58.31;101627.72;5109086;27;20604;-67
2023/11/22 09:18:38;;;;;;;9.40;5.40;;;;;;;-1.85;58.48;101622.28;5101238;27;20470;-67
2023/11/22 09:21:08;;;;;;;12.20;6.07;;;;;;;-1.81;58.62;101606.53;5102315;28;20201;-67
2023/11/22 09:23:36;;;;;;;7.30;4.90;;;;;;;-1.81;57.65;101616.63;5122962;27;20199;-70
2023/11/22 09:26:05;;;;;;;9.10;5.07;;;;;;;-1.84;56.77;101621.50;5122530;27;20675;-67
2023/11/22 09:28:33;;;;;;;8.00;4.97;;;;;;;-1.83;57.30;101619.09;5118697;27;20196;-66
2023/11/22 09:31:05;;;;;;;7.50;4.77;;;;;;;-1.75;56.92;101601.88;5116940;27;20551;-67
2023/11/22 09:33:34;;;;;;;8.80;5.23;;;;;;;-1.77;56.19;101593.31;5117696;27;20191;-68
2023/11/22 09:36:03;;;;;;;9.10;5.00;;;;;;;-1.75;56.47;101597.69;5122329;27;20594;-66
2023/11/22 09:38:37;;;;;;;8.13;4.93;;;;;;;-1.77;56.02;101594.22;5121846;27;20529;-67
2023/11/22 09:41:07;;;;;;;11.97;5.07;;;;;;;-1.78;56.08;101581.47;5126536;27;20696;-67
2023/11/22 09:43:35;;;;;;;8.00;5.10;;;;;;;-1.82;55.78;101566.91;5115283;27;20191;-67
2023/11/22 09:46:05;;;;;;;9.67;5.90;;;;;;;-1.84;56.09;101581.06;5103594;28;20196;-66
2023/11/22 09:48:34;;;;;;;9.17;5.13;;;;;;;-1.86;56.93;101581.00;5120897;27;20226;-65
2023/11/22 09:51:05;;;;;;;9.97;5.10;;;;;;;-1.81;56.40;101577.09;5123763;27;20290;-65
2023/11/22 09:53:37;;;;;;;8.57;4.90;;;;;;;-1.73;57.40;101563.31;5113046;27;20285;-67
2023/11/22 09:56:09;;;;;;;8.80;4.87;;;;;;;-1.67;57.53;101550.16;5110220;27;20226;-66
2023/11/22 09:58:43;;;;;;;7.93;5.57;;;;;;;-1.60;56.30;101542.19;5110223;27;20572;-67
2023/11/22 10:01:14;;;;;;;7.70;4.77;;;;;;;-1.54;56.19;101552.69;5113455;27;20657;-64
2023/11/22 10:03:42;;;;;;;8.83;4.77;;;;;;;-1.52;56.32;101557.81;5109172;27;20571;-66
2023/11/22 10:06:10;;;;;;;6.57;4.40;;;;;;;-1.60;54.69;101548.88;5105543;27;20219;-67
2023/11/22 10:08:38;;;;;;;9.37;4.53;;;;;;;-1.70;55.41;101550.84;5112471;27;20664;-67
2023/11/22 10:11:07;;;;;;;10.20;5.17;;;;;;;-1.66;55.14;101554.44;5108629;27;20192;-66
2023/11/22 10:13:35;;;;;;;6.37;4.40;;;;;;;-1.65;56.08;101562.91;5116347;27;20263;-66
2023/11/22 10:16:11;;;;;;;8.40;5.30;;;;;;;-1.63;56.31;101563.88;5117626;27;20239;-66
2023/11/22 10:18:46;;;;;;;6.90;4.50;;;;;;;-1.64;55.66;101555.41;5115022;27;20682;-68
2023/11/22 10:21:21;;;;;;;6.80;4.47;;;;;;;-1.68;54.84;101567.78;5111809;27;20196;-70
2023/11/22 10:23:51;;;;;;;8.60;5.37;;;;;;;-1.70;55.46;101580.28;5109670;27;20614;-65
2023/11/22 10:26:19;;;;;;;6.97;4.50;;;;;;;-1.63;56.28;101571.44;5114872;27;20196;-64
2023/11/22 10:28:51;;;;;;;7.23;4.33;;;;;;;-1.57;55.01;101567.66;5116730;27;20218;-68
2023/11/22 10:31:19;;;;;;;8.70;5.60;;;;;;;-1.56;55.06;101564.31;5109720;27;20209;-66
2023/11/22 10:33:50;;;;;;;10.03;5.70;;;;;;;-1.53;55.22;101567.06;5113844;27;20235;-67
2023/11/22 10:36:19;;;;;;;12.00;6.40;;;;;;;-1.45;55.97;101575.09;5115667;27;20302;-68
2023/11/22 10:38:48;;;;;;;8.73;5.13;;;;;;;-1.37;55.65;101566.31;5108548;27;20450;-69
2023/11/22 10:41:17;;;;;;;8.40;5.37;;;;;;;-1.29;55.04;101579.44;5114065;27;20238;-69
2023/11/22 10:43:48;;;;;;;9.13;5.47;;;;;;;-1.25;55.02;101578.88;5114424;27;20302;-70
2023/11/22 10:46:17;;;;;;;7.43;4.87;;;;;;;-1.23;56.07;101582.34;5108738;27;20196;-65
2023/11/22 10:48:46;;;;;;;11.10;5.67;;;;;;;-1.22;56.05;101573.97;5108646;27;20208;-68
2023/11/22 10:51:16;;;;;;;14.63;7.17;;;;;;;-1.16;54.97;101587.00;5107466;27;20195;-66
2023/11/22 10:53:50;;;;;;;7.87;4.90;;;;;;;-1.15;55.41;101576.09;5101394;27;20291;-68
2023/11/22 10:56:21;;;;;;;8.67;5.43;;;;;;;-1.13;54.08;101572.00;5112034;27;20220;-66
2023/11/22 10:58:52;;;;;;;8.33;5.20;;;;;;;-1.16;54.84;101571.81;5110952;27;20808;-66
2023/11/22 11:01:21;;;;;;;9.27;5.33;;;;;;;-1.13;54.69;101568.59;5117283;27;20776;-65
2023/11/22 11:03:57;;;;;;;6.70;4.77;;;;;;;-1.18;54.14;101565.78;5114563;27;20199;-68
2023/11/22 11:06:33;;;;;;;6.03;4.13;;;;;;;-1.24;53.99;101567.97;5120478;27;20630;-67
2023/11/22 11:09:05;;;;;;;5.90;3.70;;;;;;;-1.25;54.62;101576.34;5122072;27;20200;-66
2023/11/22 11:11:34;;;;;;;7.90;4.47;;;;;;;-1.24;54.29;101563.78;5114914;27;20214;-69
2023/11/22 11:14:05;;;;;;;8.57;3.93;;;;;;;-1.24;54.10;101563.78;5112728;27;20715;-68
2023/11/22 11:16:38;;;;;;;6.03;3.97;;;;;;;-1.23;53.22;101562.97;5125855;27;20693;-67
2023/11/22 11:19:07;;;;;;;7.20;4.57;;;;;;;-1.19;54.71;101558.97;5106635;27;20223;-71
2023/11/22 11:21:37;;;;;;;9.03;5.40;;;;;;;-1.15;53.96;101560.91;5109143;27;20628;-71
2023/11/22 11:24:05;;;;;;;8.67;5.53;;;;;;;-1.10;54.97;101559.56;5111076;27;20204;-65
2023/11/22 11:26:35;;;;;;;7.87;4.70;;;;;;;-1.05;54.03;101549.69;5119977;27;20525;-71
2023/11/22 11:29:04;;;;;;;9.10;5.30;;;;;;;-1.08;54.41;101545.31;5119944;27;20195;-70
2023/11/22 11:31:35;;;;;;;9.87;6.10;;;;;;;-1.03;53.77;101546.47;5117769;27;20243;-68
2023/11/22 11:34:07;;;;;;;9.60;6.33;;;;;;;-1.03;54.06;101538.00;5120997;27;20205;-72